Time;durP1;ratioP1;P1;durP2;ratioP2;P2;SDS_P1;SDS_P2;PMS_P1;PMS_P2;Temp;Humidity;BMP_temperature;BMP_pressure;BME280_temperature;BME280_humidity;BME280_pressure;Samples;Min_cycle;Max_cycle;Signal;HPM_P1;HPM_P2
2022/08/04 00:00:05;;;;;;;5.70;3.40;;;;;;;22.01;70.44;100720.22;6013577;28;20031;-66
2022/08/04 00:03:23;;;;;;;6.97;3.85;;;;;;;21.65;71.74;100726.25;6023685;28;20166;-65
2022/08/04 00:06:45;;;;;;;7.85;4.15;;;;;;;21.23;73.61;100717.75;6038460;28;20512;-67
2022/08/04 00:09:49;;;;;;;6.70;3.90;;;;;;;21.05;74.34;100727.56;6024378;28;20042;-67
2022/08/04 00:12:47;;;;;;;5.15;3.97;;;;;;;21.77;72.08;100727.19;6021299;28;20065;-66
2022/08/04 00:15:43;;;;;;;8.55;3.42;;;;;;;22.17;70.52;100731.28;6021495;28;20069;-66
2022/08/04 00:18:43;;;;;;;6.18;3.80;;;;;;;21.75;71.60;100743.63;6023037;28;20034;-65
2022/08/04 00:21:42;;;;;;;7.45;3.40;;;;;;;21.64;71.79;100738.09;6021908;28;20034;-65
2022/08/04 00:24:37;;;;;;;6.72;3.53;;;;;;;21.49;72.89;100732.16;6018934;28;20106;-67
2022/08/04 00:27:33;;;;;;;7.80;3.83;;;;;;;22.01;71.44;100729.13;6023246;28;20044;-66
2022/08/04 00:30:28;;;;;;;6.83;3.70;;;;;;;21.91;70.98;100718.81;6022894;28;20031;-65
2022/08/04 00:33:23;;;;;;;6.73;3.50;;;;;;;22.11;71.41;100723.22;6020785;28;20062;-67
2022/08/04 00:36:19;;;;;;;5.73;4.00;;;;;;;22.31;71.16;100729.28;6021885;28;20292;-67
2022/08/04 00:39:15;;;;;;;6.57;3.47;;;;;;;22.43;70.72;100727.50;6019995;28;20371;-67
2022/08/04 00:42:34;;;;;;;5.93;3.38;;;;;;;22.40;69.40;100739.59;6021500;28;20042;-65
2022/08/04 00:46:11;;;;;;;7.25;3.80;;;;;;;22.43;70.99;100731.03;6021205;28;20500;-66
2022/08/04 00:49:27;;;;;;;5.97;3.97;;;;;;;22.01;68.83;100731.84;6020996;28;20045;-66
2022/08/04 00:52:38;;;;;;;7.10;4.13;;;;;;;22.07;69.35;100730.94;6022362;28;20066;-67
2022/08/04 00:55:55;;;;;;;8.65;3.65;;;;;;;21.64;70.33;100721.88;6021228;28;20042;-66
2022/08/04 00:59:24;;;;;;;5.65;3.40;;;;;;;21.69;71.71;100727.44;6022761;28;20494;-66
2022/08/04 01:02:28;;;;;;;6.05;3.42;;;;;;;21.44;72.07;100726.59;6032354;28;20115;-65
2022/08/04 01:05:40;;;;;;;7.18;3.35;;;;;;;21.50;72.31;100715.75;6021626;28;20093;-65
2022/08/04 01:08:41;;;;;;;6.40;3.80;;;;;;;21.90;71.10;100719.03;6020243;28;20044;-66
2022/08/04 01:11:56;;;;;;;6.38;3.67;;;;;;;21.91;71.14;100716.13;6020860;28;20060;-66
2022/08/04 01:15:16;;;;;;;7.60;3.83;;;;;;;22.20;70.15;100709.25;6020893;28;20038;-66
2022/08/04 01:18:20;;;;;;;5.93;3.53;;;;;;;22.06;69.39;100704.16;6019249;28;20026;-66
2022/08/04 01:21:29;;;;;;;5.80;3.88;;;;;;;22.03;68.99;100705.44;6018675;28;20500;-66
2022/08/04 01:24:46;;;;;;;5.95;3.72;;;;;;;22.25;69.40;100709.38;6012528;28;20038;-65
2022/08/04 01:27:55;;;;;;;9.07;4.13;;;;;;;22.09;69.53;100707.25;6021399;28;20034;-67
2022/08/04 01:30:56;;;;;;;5.35;3.70;;;;;;;21.70;69.85;100696.72;6015138;28;20032;-64
2022/08/04 01:33:53;;;;;;;4.72;3.33;;;;;;;21.84;70.35;100703.69;6022703;28;20031;-67
2022/08/04 01:37:10;;;;;;;7.32;3.60;;;;;;;21.66;70.29;100693.63;6020841;28;20038;-66
2022/08/04 01:40:06;;;;;;;9.38;3.88;;;;;;;21.68;70.87;100688.84;6019148;28;20045;-68
2022/08/04 01:43:02;;;;;;;8.85;4.03;;;;;;;21.78;71.31;100710.78;6021602;28;20041;-67
2022/08/04 01:46:00;;;;;;;6.57;3.72;;;;;;;21.54;71.37;100708.03;6021440;28;20026;-66
2022/08/04 01:48:56;;;;;;;6.18;3.60;;;;;;;21.52;70.66;100699.34;6022511;28;20501;-65
2022/08/04 01:51:51;;;;;;;7.07;4.60;;;;;;;21.64;69.82;100703.00;6014127;28;20038;-64
2022/08/04 01:54:47;;;;;;;9.75;3.90;;;;;;;21.20;70.37;100687.69;6020459;28;20041;-66
2022/08/04 01:57:50;;;;;;;10.15;3.95;;;;;;;21.00;70.85;100700.44;6019233;28;20042;-65
2022/08/04 02:00:57;;;;;;;8.63;3.92;;;;;;;20.80;71.67;100684.31;6018603;28;20478;-65
2022/08/04 02:03:52;;;;;;;8.15;3.97;;;;;;;20.91;71.59;100697.13;6019450;28;20445;-65
2022/08/04 02:07:02;;;;;;;8.83;4.10;;;;;;;20.70;72.43;100681.25;6013603;28;20046;-66
2022/08/04 02:10:06;;;;;;;7.15;3.95;;;;;;;20.75;72.20;100692.22;6016882;28;20038;-64
2022/08/04 02:13:27;;;;;;;8.55;3.75;;;;;;;20.94;71.41;100690.50;6019363;28;20382;-66
2022/08/04 02:16:47;;;;;;;7.65;4.13;;;;;;;21.07;70.93;100677.81;6020028;28;20034;-66
2022/08/04 02:20:05;;;;;;;5.82;3.78;;;;;;;21.28;70.32;100688.25;6018877;28;20042;-63
2022/08/04 02:23:15;;;;;;;5.53;3.67;;;;;;;21.41;69.75;100675.75;6021368;28;20038;-66
2022/08/04 02:26:13;;;;;;;6.18;3.83;;;;;;;21.31;70.51;100687.00;6019931;28;20117;-64
2022/08/04 02:29:33;;;;;;;5.95;4.00;;;;;;;20.72;72.09;100688.09;6021019;28;20089;-64
2022/08/04 02:32:32;;;;;;;6.80;3.88;;;;;;;20.10;74.38;100672.44;6020932;28;20068;-65
2022/08/04 02:35:28;;;;;;;6.20;4.10;;;;;;;19.88;75.99;100671.00;6021336;28;20038;-64
2022/08/04 02:38:30;;;;;;;5.35;3.83;;;;;;;20.02;76.05;100671.84;6032332;28;20038;-63
2022/08/04 02:41:27;;;;;;;7.15;4.03;;;;;;;19.67;77.48;100673.06;6027931;28;20513;-64
2022/08/04 02:44:22;;;;;;;8.48;4.10;;;;;;;19.84;78.02;100671.63;6021043;28;20045;-64
2022/08/04 02:47:20;;;;;;;6.17;3.97;;;;;;;19.53;79.14;100667.69;6019924;28;20038;-64
2022/08/04 02:50:17;;;;;;;7.80;4.18;;;;;;;19.74;79.38;100684.66;6017865;28;20281;-68
2022/08/04 02:53:14;;;;;;;6.85;4.13;;;;;;;19.70;79.35;100670.81;6036060;28;20034;-64
2022/08/04 02:56:10;;;;;;;5.88;3.35;;;;;;;20.09;78.07;100665.41;6020787;28;20023;-66
2022/08/04 02:59:08;;;;;;;5.30;3.58;;;;;;;20.07;78.25;100672.88;6025969;28;20441;-64
2022/08/04 03:02:03;;;;;;;6.15;3.92;;;;;;;19.95;78.24;100676.38;6024705;28;20058;-66
2022/08/04 03:05:04;;;;;;;6.77;3.70;;;;;;;20.17;78.03;100677.81;6017780;28;20139;-65
2022/08/04 03:08:26;;;;;;;7.00;3.35;;;;;;;20.33;77.95;100677.41;6024458;28;20034;-66
2022/08/04 03:11:34;;;;;;;5.82;3.85;;;;;;;20.29;77.74;100678.03;6017968;28;20149;-65
2022/08/04 03:14:46;;;;;;;9.20;3.85;;;;;;;20.43;77.58;100676.97;6039716;28;20168;-66
2022/08/04 03:18:19;;;;;;;6.80;3.63;;;;;;;20.49;78.08;100670.75;6041126;28;20371;-64
2022/08/04 03:21:39;;;;;;;7.43;3.67;;;;;;;20.60;76.08;100679.00;6019794;28;20159;-65
2022/08/04 03:25:11;;;;;;;6.15;3.92;;;;;;;20.66;76.22;100672.75;6013689;28;20022;-67
2022/08/04 03:28:23;;;;;;;9.13;3.70;;;;;;;20.64;75.81;100668.63;6019051;28;20426;-67
2022/08/04 03:31:49;;;;;;;6.13;3.65;;;;;;;20.57;76.65;100678.59;6032050;28;20557;-66
2022/08/04 03:35:09;;;;;;;7.47;3.85;;;;;;;20.51;75.75;100668.66;6024167;28;20034;-66
2022/08/04 03:38:29;;;;;;;6.97;3.67;;;;;;;20.33;76.46;100682.00;6020447;28;20109;-65
2022/08/04 03:41:57;;;;;;;6.60;3.67;;;;;;;20.46;77.91;100681.94;6019155;28;20038;-67
2022/08/04 03:45:10;;;;;;;6.97;4.07;;;;;;;20.34;76.74;100683.63;6015273;28;20034;-66
2022/08/04 03:48:41;;;;;;;5.93;3.83;;;;;;;19.88;77.91;100679.09;6022606;28;20030;-66
2022/08/04 03:55:15;;;;;;;;;;;;;;;19.12;81.60;100693.00;6020693;28;20074;-63
2022/08/04 03:58:37;;;;;;;6.43;4.00;;;;;;;19.11;82.50;100691.31;6024045;28;20419;-63
2022/08/04 04:01:54;;;;;;;7.03;4.38;;;;;;;19.61;81.75;100682.78;6022275;28;20374;-67
2022/08/04 04:05:04;;;;;;;6.10;3.60;;;;;;;20.16;79.83;100678.88;6020368;28;20386;-67
2022/08/04 04:08:18;;;;;;;6.80;3.75;;;;;;;20.27;77.52;100674.75;6020641;28;20026;-67
2022/08/04 04:11:42;;;;;;;6.88;3.83;;;;;;;20.35;77.15;100663.75;6021047;28;20026;-67
2022/08/04 04:14:48;;;;;;;8.18;4.13;;;;;;;20.62;76.39;100670.72;6023486;28;20378;-67
2022/08/04 04:17:49;;;;;;;6.90;3.67;;;;;;;20.85;74.79;100676.41;6013670;28;20100;-67
2022/08/04 04:21:11;;;;;;;6.82;4.18;;;;;;;20.42;75.35;100678.84;6020551;28;20045;-66
2022/08/04 04:24:32;;;;;;;6.75;4.22;;;;;;;20.75;76.40;100678.75;6022076;28;20470;-65
2022/08/04 04:27:36;;;;;;;6.35;4.07;;;;;;;20.94;74.63;100679.69;6023471;28;20503;-66
2022/08/04 04:30:48;;;;;;;7.43;4.57;;;;;;;20.87;73.00;100663.56;6021848;28;20132;-66
2022/08/04 04:34:05;;;;;;;6.75;4.15;;;;;;;20.84;73.84;100679.34;6023814;28;20089;-65
2022/08/04 04:37:07;;;;;;;5.70;4.05;;;;;;;20.89;74.07;100683.06;6037420;28;20380;-64
2022/08/04 04:40:26;;;;;;;9.18;4.45;;;;;;;21.67;71.33;100678.25;6021947;28;20030;-64
2022/08/04 04:43:49;;;;;;;6.68;4.00;;;;;;;22.33;69.03;100682.06;6022645;28;20034;-65
2022/08/04 04:46:59;;;;;;;5.85;4.78;;;;;;;22.42;67.50;100683.41;6018942;28;20066;-64
2022/08/04 04:50:19;;;;;;;6.28;3.95;;;;;;;23.06;65.06;100688.31;6036684;28;20659;-66
2022/08/04 04:53:21;;;;;;;9.07;3.97;;;;;;;23.58;64.50;100675.13;6021778;28;20045;-66
2022/08/04 04:56:43;;;;;;;6.25;4.13;;;;;;;23.85;63.18;100680.94;6023231;28;20428;-65
2022/08/04 04:59:46;;;;;;;5.97;3.78;;;;;;;23.63;64.52;100676.09;6036074;28;20048;-66
2022/08/04 05:02:52;;;;;;;9.10;3.72;;;;;;;24.48;60.85;100675.69;6022042;28;20037;-67
2022/08/04 05:06:09;;;;;;;7.18;4.18;;;;;;;24.98;58.59;100676.75;6019970;28;20045;-66
2022/08/04 05:09:25;;;;;;;6.97;3.83;;;;;;;24.84;57.88;100680.81;6022535;28;20037;-66
2022/08/04 05:12:51;;;;;;;5.57;4.03;;;;;;;25.14;58.16;100686.06;6021491;28;20056;-64
2022/08/04 05:15:48;;;;;;;9.55;4.30;;;;;;;24.39;60.30;100677.94;6033257;28;20042;-66
2022/08/04 05:18:48;;;;;;;6.47;4.13;;;;;;;24.30;60.11;100673.91;6032896;28;20117;-65
2022/08/04 05:21:47;;;;;;;9.27;4.68;;;;;;;24.29;59.34;100680.41;6020565;28;20064;-65
2022/08/04 05:24:45;;;;;;;7.53;4.72;;;;;;;25.08;57.64;100676.16;6020292;28;20041;-65
2022/08/04 05:27:45;;;;;;;6.85;4.35;;;;;;;25.52;55.93;100677.28;6015734;28;20030;-65
2022/08/04 05:30:47;;;;;;;7.43;4.50;;;;;;;25.88;54.92;100683.06;6015827;28;20030;-66
2022/08/04 05:34:04;;;;;;;6.32;4.35;;;;;;;25.81;53.72;100663.41;6022627;28;20044;-65
2022/08/04 05:37:02;;;;;;;7.75;4.18;;;;;;;25.41;55.17;100676.25;6020687;28;20109;-65
2022/08/04 05:40:03;;;;;;;8.25;4.63;;;;;;;24.84;56.73;100675.38;6019265;28;20049;-65
2022/08/04 05:42:58;;;;;;;8.40;4.25;;;;;;;24.60;58.42;100671.88;6022646;28;20053;-65
2022/08/04 05:45:56;;;;;;;6.72;4.05;;;;;;;24.66;57.75;100670.94;6020159;28;20039;-67
2022/08/04 05:48:52;;;;;;;11.23;4.32;;;;;;;25.43;55.69;100668.69;6020105;28;20038;-64
2022/08/04 05:51:47;;;;;;;8.23;4.38;;;;;;;25.17;55.17;100663.81;6016656;28;20121;-65
2022/08/04 05:54:44;;;;;;;10.10;5.45;;;;;;;24.75;55.68;100655.94;6030245;28;20088;-66
2022/08/04 05:57:40;;;;;;;11.85;6.95;;;;;;;24.28;57.04;100660.63;6020908;28;20037;-67
2022/08/04 06:00:36;;;;;;;10.70;5.95;;;;;;;23.89;58.30;100666.69;6021473;28;20136;-66
2022/08/04 06:03:33;;;;;;;11.77;5.57;;;;;;;23.60;59.44;100662.16;6020205;28;20054;-65
2022/08/04 06:06:29;;;;;;;8.57;6.15;;;;;;;24.38;57.37;100665.41;6022391;28;20046;-64
2022/08/04 06:09:24;;;;;;;9.40;5.15;;;;;;;24.78;57.24;100655.47;6021451;28;20030;-64
2022/08/04 06:12:37;;;;;;;10.37;6.83;;;;;;;24.60;56.49;100668.34;6021427;28;20042;-66
2022/08/04 06:15:32;;;;;;;;;;;;;;;24.35;58.18;100673.22;6019815;28;20769;-66
2022/08/04 06:18:28;;;;;;;11.50;5.20;;;;;;;24.50;57.93;100662.69;6036632;28;19920;-66
2022/08/04 06:21:26;;;;;;;6.85;5.20;;;;;;;24.58;57.21;100655.03;6014161;28;20027;-65
2022/08/04 06:24:24;;;;;;;8.70;4.97;;;;;;;24.51;56.81;100659.78;6021664;28;20046;-66
2022/08/04 06:27:20;;;;;;;9.50;5.40;;;;;;;24.93;56.27;100657.66;6035371;28;20041;-66
2022/08/04 06:30:18;;;;;;;6.13;4.25;;;;;;;25.00;55.20;100658.38;6020785;28;20121;-66
2022/08/04 06:33:32;;;;;;;5.03;3.58;;;;;;;25.62;53.32;100658.44;6019996;28;20048;-67
2022/08/04 06:36:29;;;;;;;7.63;4.53;;;;;;;26.25;50.96;100647.22;6024985;28;20042;-65
2022/08/04 06:39:26;;;;;;;11.48;5.47;;;;;;;26.21;50.41;100659.66;6026658;28;20049;-65
2022/08/04 06:42:25;;;;;;;12.57;5.22;;;;;;;26.39;49.27;100656.69;6026088;28;20045;-64
2022/08/04 06:45:20;;;;;;;12.77;5.85;;;;;;;26.11;49.70;100657.59;6024177;28;20042;-63
2022/08/04 06:48:17;;;;;;;13.82;5.75;;;;;;;26.06;50.45;100641.22;6031545;28;20421;-64
2022/08/04 06:51:13;;;;;;;14.98;6.57;;;;;;;26.37;49.59;100647.94;6023934;28;20061;-64
2022/08/04 06:54:09;;;;;;;11.40;5.57;;;;;;;26.49;49.97;100645.94;6023649;28;20386;-65
2022/08/04 06:57:04;;;;;;;12.30;5.50;;;;;;;27.11;47.89;100644.53;6024749;28;20042;-64
2022/08/04 07:00:03;;;;;;;15.18;6.28;;;;;;;26.53;49.13;100639.72;6023028;28;20031;-64
2022/08/04 07:02:58;;;;;;;10.57;5.00;;;;;;;27.23;47.20;100646.28;6025286;28;20034;-64
2022/08/04 07:05:54;;;;;;;14.52;5.70;;;;;;;27.79;46.12;100634.84;6040390;28;20022;-67
2022/08/04 07:08:49;;;;;;;10.48;5.80;;;;;;;27.92;45.58;100633.53;6035217;28;20064;-66
2022/08/04 07:11:46;;;;;;;11.50;5.68;;;;;;;28.09;44.92;100631.53;6040427;28;20196;-66
2022/08/04 07:14:41;;;;;;;12.75;5.47;;;;;;;28.14;45.70;100643.28;6023403;28;20046;-65
2022/08/04 07:17:37;;;;;;;11.70;5.00;;;;;;;27.98;45.98;100633.34;6026159;28;20701;-65
2022/08/04 07:20:33;;;;;;;11.93;4.85;;;;;;;27.95;46.68;100641.22;6022152;28;20030;-66
2022/08/04 07:23:28;;;;;;;12.32;5.32;;;;;;;27.65;46.27;100639.06;6039293;28;20034;-65
2022/08/04 07:26:27;;;;;;;10.90;4.80;;;;;;;27.95;45.34;100633.03;6017390;28;20066;-66
2022/08/04 07:29:24;;;;;;;11.07;4.95;;;;;;;28.51;43.57;100632.28;6024448;28;20034;-65
2022/08/04 07:32:21;;;;;;;10.30;4.85;;;;;;;28.27;43.54;100618.25;6024734;28;20355;-65
2022/08/04 07:35:17;;;;;;;11.15;4.30;;;;;;;28.91;42.58;100632.50;6024659;28;20532;-67
2022/08/04 07:38:13;;;;;;;7.60;4.25;;;;;;;28.74;42.83;100622.88;6024269;28;20057;-63
2022/08/04 07:41:08;;;;;;;8.25;4.20;;;;;;;28.75;42.57;100610.88;6022216;28;20058;-65
2022/08/04 07:44:04;;;;;;;6.93;4.07;;;;;;;29.07;42.05;100619.69;6023039;28;20057;-67
2022/08/04 07:47:00;;;;;;;8.32;3.80;;;;;;;29.57;40.44;100612.69;6024846;28;20581;-64
2022/08/04 07:49:56;;;;;;;7.88;4.00;;;;;;;29.09;41.10;100613.94;6023931;28;20049;-64
2022/08/04 07:52:51;;;;;;;8.53;3.57;;;;;;;29.21;41.07;100614.53;6024045;28;20352;-66
2022/08/04 07:55:47;;;;;;;8.13;4.13;;;;;;;29.32;40.60;100617.03;6022518;28;20761;-65
2022/08/04 07:58:42;;;;;;;7.97;3.95;;;;;;;29.63;40.50;100606.09;6022580;28;20037;-66
2022/08/04 08:01:39;;;;;;;7.72;3.83;;;;;;;29.72;40.16;100599.81;6019478;28;20808;-66
2022/08/04 08:04:34;;;;;;;6.75;3.55;;;;;;;29.84;40.21;100602.31;6038681;28;20037;-65
2022/08/04 08:07:29;;;;;;;9.43;3.88;;;;;;;30.01;39.03;100598.16;6023631;28;20030;-64
2022/08/04 08:10:25;;;;;;;7.07;3.60;;;;;;;30.62;38.59;100589.75;6023710;28;20046;-65
2022/08/04 08:13:20;;;;;;;10.43;3.40;;;;;;;31.30;36.98;100587.16;6023448;28;20372;-65
2022/08/04 08:16:18;;;;;;;6.07;3.05;;;;;;;30.92;36.35;100594.28;6026475;28;20282;-65
2022/08/04 08:19:14;;;;;;;5.20;2.75;;;;;;;31.25;34.96;100585.31;6021286;28;20034;-65
2022/08/04 08:22:10;;;;;;;9.85;2.75;;;;;;;31.49;35.38;100580.75;6023369;28;20367;-67
2022/08/04 08:25:07;;;;;;;4.55;2.85;;;;;;;31.86;34.89;100571.88;6023287;28;20034;-67
2022/08/04 08:28:06;;;;;;;4.93;2.55;;;;;;;32.08;33.65;100576.88;6023472;28;20034;-66
2022/08/04 08:31:01;;;;;;;3.90;2.65;;;;;;;32.36;32.55;100573.28;6038102;28;20455;-66
2022/08/04 08:33:58;;;;;;;4.47;2.50;;;;;;;32.10;32.92;100570.00;6023500;28;20041;-65
2022/08/04 08:37:00;;;;;;;5.72;2.78;;;;;;;32.28;32.31;100577.47;6039112;28;20117;-66
2022/08/04 08:40:07;;;;;;;5.20;2.70;;;;;;;32.27;31.72;100566.78;6019331;28;20517;-65
2022/08/04 08:43:15;;;;;;;4.95;2.60;;;;;;;32.54;31.39;100567.00;6038207;28;20030;-65
2022/08/04 08:46:24;;;;;;;4.38;2.70;;;;;;;32.97;29.75;100568.59;6024024;28;20360;-65
2022/08/04 08:49:41;;;;;;;4.65;2.42;;;;;;;32.72;30.81;100568.16;6038082;28;20034;-65
2022/08/04 08:53:01;;;;;;;4.57;2.70;;;;;;;33.22;29.59;100569.34;6017060;28;20382;-67
2022/08/04 08:56:12;;;;;;;9.05;2.47;;;;;;;33.47;28.44;100557.94;6020300;28;20516;-66
2022/08/04 08:59:32;;;;;;;5.15;2.33;;;;;;;33.84;28.20;100565.25;6021899;28;20030;-66
2022/08/04 09:02:44;;;;;;;3.13;2.42;;;;;;;34.11;27.56;100554.28;6018313;28;20050;-66
2022/08/04 09:06:01;;;;;;;5.18;2.47;;;;;;;34.12;27.29;100566.94;6022371;28;20053;-64
2022/08/04 09:09:39;;;;;;;3.55;2.38;;;;;;;33.73;27.43;100558.34;6022202;28;20042;-64
2022/08/04 09:12:57;;;;;;;6.90;2.40;;;;;;;33.98;27.14;100561.41;6023003;28;20581;-64
2022/08/04 09:16:18;;;;;;;7.22;2.60;;;;;;;33.67;28.22;100551.28;6009492;28;20034;-65
2022/08/04 09:19:22;;;;;;;3.15;2.25;;;;;;;34.24;27.06;100558.19;6037759;28;20030;-64
2022/08/04 09:22:55;;;;;;;5.40;2.33;;;;;;;34.05;27.54;100556.31;6020876;28;20125;-64
2022/08/04 09:25:54;;;;;;;10.95;3.95;;;;;;;34.34;27.53;100557.97;6018170;28;20129;-64
2022/08/04 09:28:51;;;;;;;;;;;;;;;34.14;27.49;100555.66;6022250;28;20067;-63
2022/08/04 09:32:09;;;;;;;6.68;2.40;;;;;;;34.87;26.32;100539.69;6022163;28;19917;-66
2022/08/04 09:35:17;;;;;;;;;;;;;;;35.49;26.05;100550.91;6020711;28;20106;-66
2022/08/04 09:38:20;;;;;;;6.85;2.78;;;;;;;35.12;25.74;100536.38;6032996;28;20379;-65
2022/08/04 09:41:29;;;;;;;9.85;3.30;;;;;;;35.19;26.35;100524.91;6035974;28;20034;-66
2022/08/04 09:44:43;;;;;;;6.43;2.97;;;;;;;35.03;26.23;100543.75;6021176;28;20147;-65
2022/08/04 09:47:54;;;;;;;9.13;3.38;;;;;;;35.53;25.58;100532.56;6035033;28;20446;-67
2022/08/04 09:50:54;;;;;;;11.80;2.70;;;;;;;35.56;24.53;100518.19;6020687;28;20057;-66
2022/08/04 09:54:02;;;;;;;5.47;2.33;;;;;;;35.22;25.58;100538.06;6017804;28;20046;-66
2022/08/04 09:57:37;;;;;;;4.95;2.25;;;;;;;35.38;25.62;100527.47;6022211;28;20034;-65
2022/08/04 10:00:43;;;;;;;2.78;2.28;;;;;;;35.90;24.57;100521.09;6017427;28;20045;-65
2022/08/04 10:03:44;;;;;;;6.32;2.72;;;;;;;35.74;24.80;100517.94;6022075;28;20386;-66
2022/08/04 10:07:15;;;;;;;3.80;2.40;;;;;;;35.67;25.64;100519.53;6018043;28;20046;-67
2022/08/04 10:10:20;;;;;;;3.58;2.20;;;;;;;35.53;24.75;100518.78;6034113;28;20133;-65
2022/08/04 10:13:25;;;;;;;4.07;2.35;;;;;;;35.69;23.85;100511.75;6021001;28;20030;-65
2022/08/04 10:16:46;;;;;;;4.22;2.28;;;;;;;36.08;24.42;100509.00;6018341;28;20110;-67
2022/08/04 10:19:41;;;;;;;5.95;2.67;;;;;;;36.21;24.13;100496.19;6019973;28;20494;-64
2022/08/04 10:22:42;;;;;;;5.15;2.83;;;;;;;36.16;24.41;100508.22;6019408;28;20046;-67
2022/08/04 10:26:04;;;;;;;8.57;2.53;;;;;;;36.05;23.88;100512.41;6015708;28;20034;-65
2022/08/04 10:29:20;;;;;;;6.45;2.40;;;;;;;35.63;24.57;100499.22;6036561;28;20035;-65
2022/08/04 10:32:33;;;;;;;4.35;2.58;;;;;;;35.70;24.73;100491.28;6020310;28;20038;-65
2022/08/04 10:35:37;;;;;;;6.40;2.28;;;;;;;36.01;24.50;100492.06;6020307;28;20117;-65
2022/08/04 10:38:39;;;;;;;3.47;2.10;;;;;;;35.90;24.09;100467.81;6020415;28;20030;-65
2022/08/04 10:41:56;;;;;;;3.67;2.20;;;;;;;35.75;24.22;100480.09;6018511;28;20060;-65
2022/08/04 10:45:09;;;;;;;4.93;2.67;;;;;;;36.13;23.55;100480.41;6021674;28;20038;-65
2022/08/04 10:48:22;;;;;;;3.40;2.03;;;;;;;35.30;24.35;100470.28;6017300;28;20062;-66
2022/08/04 10:51:35;;;;;;;3.97;2.28;;;;;;;35.71;23.36;100468.09;6019640;28;20124;-66
2022/08/04 10:54:34;;;;;;;3.63;2.13;;;;;;;35.78;23.15;100465.66;6021217;28;20156;-65
2022/08/04 10:57:50;;;;;;;3.03;2.25;;;;;;;36.41;23.20;100473.47;6021105;28;20140;-64
2022/08/04 11:00:45;;;;;;;3.35;1.95;;;;;;;36.57;22.69;100479.38;6035634;28;20058;-64
2022/08/04 11:03:48;;;;;;;3.55;1.90;;;;;;;36.37;22.75;100462.25;6021448;28;20041;-64
2022/08/04 11:06:45;;;;;;;5.03;1.95;;;;;;;36.01;22.67;100469.97;6035407;28;20042;-64
2022/08/04 11:09:42;;;;;;;2.53;1.90;;;;;;;36.15;22.98;100465.13;6021968;28;20477;-65
2022/08/04 11:12:39;;;;;;;4.40;2.33;;;;;;;36.12;23.33;100471.31;6019879;28;20041;-65
2022/08/04 11:15:40;;;;;;;3.20;2.25;;;;;;;35.82;23.52;100448.13;6021057;28;20114;-64
2022/08/04 11:18:46;;;;;;;3.22;1.83;;;;;;;36.10;23.40;100473.59;6036413;28;20030;-65
2022/08/04 11:21:59;;;;;;;4.65;2.03;;;;;;;35.84;23.23;100465.22;6022495;28;20117;-65
2022/08/04 11:25:13;;;;;;;2.80;1.90;;;;;;;36.10;23.63;100456.19;6025484;28;20034;-64
2022/08/04 11:28:14;;;;;;;3.35;1.80;;;;;;;35.93;23.96;100442.34;6025731;28;20037;-65
2022/08/04 11:31:30;;;;;;;4.63;2.20;;;;;;;36.40;22.70;100460.78;6024325;28;20038;-65
2022/08/04 11:34:26;;;;;;;6.20;1.88;;;;;;;36.55;22.02;100451.25;6016441;28;20097;-65
2022/08/04 11:37:25;;;;;;;3.45;2.05;;;;;;;36.20;22.83;100455.91;6024523;28;20034;-64
2022/08/04 11:40:29;;;;;;;2.85;2.08;;;;;;;36.27;22.93;100456.22;6023694;28;20117;-65
2022/08/04 11:43:36;;;;;;;3.25;1.98;;;;;;;36.84;22.46;100445.84;6024809;28;20057;-65
2022/08/04 11:46:41;;;;;;;10.55;2.20;;;;;;;37.35;21.25;100450.47;6017081;28;20432;-65
2022/08/04 11:49:44;;;;;;;4.45;2.10;;;;;;;37.56;21.26;100457.75;6024115;28;20061;-66
2022/08/04 11:52:42;;;;;;;2.97;2.13;;;;;;;37.94;22.03;100459.72;6022004;28;20111;-66
2022/08/04 11:55:38;;;;;;;4.10;2.25;;;;;;;38.05;20.77;100452.66;6022857;28;20035;-66
2022/08/04 11:58:34;;;;;;;2.58;1.95;;;;;;;38.25;20.56;100454.63;6022201;28;20037;-66
2022/08/04 12:01:34;;;;;;;3.53;1.92;;;;;;;37.91;20.70;100457.63;6021775;28;20092;-66
2022/08/04 12:04:42;;;;;;;6.28;2.30;;;;;;;37.70;21.00;100465.03;6032261;28;20046;-65
2022/08/04 12:07:41;;;;;;;2.85;2.22;;;;;;;37.97;21.83;100459.06;6020350;28;20034;-66
2022/08/04 12:10:39;;;;;;;4.05;1.92;;;;;;;37.95;21.17;100461.34;6021723;28;20359;-65
2022/08/04 12:13:43;;;;;;;4.07;1.80;;;;;;;37.66;21.85;100464.06;6023691;28;20030;-65
2022/08/04 12:16:38;;;;;;;5.00;2.30;;;;;;;37.33;21.61;100461.06;6022923;28;20046;-65
2022/08/04 12:19:45;;;;;;;4.05;2.10;;;;;;;37.01;21.86;100447.81;6023485;28;20064;-66
2022/08/04 12:22:46;;;;;;;3.22;2.25;;;;;;;36.07;23.06;100446.59;6007771;28;20046;-64
2022/08/04 12:25:46;;;;;;;3.33;1.92;;;;;;;36.59;22.98;100453.03;6037826;28;20565;-64
2022/08/04 12:28:44;;;;;;;3.30;2.15;;;;;;;37.11;22.35;100448.28;6016376;28;20041;-66
2022/08/04 12:31:44;;;;;;;5.03;2.10;;;;;;;37.40;21.81;100440.03;6019206;28;20045;-66
2022/08/04 12:34:43;;;;;;;7.15;2.30;;;;;;;37.09;22.58;100433.16;6019575;28;20035;-66
2022/08/04 12:37:55;;;;;;;4.78;2.42;;;;;;;36.66;22.86;100430.44;6020135;28;20049;-65
2022/08/04 12:40:54;;;;;;;4.30;2.88;;;;;;;36.89;22.06;100435.44;6017678;28;20041;-66
2022/08/04 12:43:50;;;;;;;3.90;2.13;;;;;;;36.63;22.25;100440.19;6018526;28;20030;-65
2022/08/04 12:46:46;;;;;;;4.90;2.20;;;;;;;36.35;23.07;100425.03;6021038;28;20045;-65
2022/08/04 12:49:43;;;;;;;3.55;2.10;;;;;;;37.06;22.17;100423.56;6024218;28;20028;-65
2022/08/04 12:52:42;;;;;;;4.28;2.17;;;;;;;37.52;22.40;100415.28;6016825;28;20031;-66
2022/08/04 12:55:47;;;;;;;2.53;2.13;;;;;;;38.16;21.75;100428.13;6023496;28;20030;-67
2022/08/04 12:58:45;;;;;;;4.53;2.47;;;;;;;38.47;21.08;100415.50;6038890;28;20529;-67
2022/08/04 13:01:46;;;;;;;5.38;2.50;;;;;;;38.20;21.25;100410.50;6019424;28;20037;-66
2022/08/04 13:04:43;;;;;;;3.65;2.42;;;;;;;38.29;21.04;100405.69;6015220;28;20030;-66
2022/08/04 13:07:46;;;;;;;2.95;2.17;;;;;;;37.39;22.13;100404.41;6018205;28;20338;-66
2022/08/04 13:10:45;;;;;;;3.45;2.22;;;;;;;36.86;22.54;100391.84;6021541;28;20026;-66
2022/08/04 13:13:43;;;;;;;5.13;2.25;;;;;;;35.99;24.27;100400.41;6032470;28;20034;-66
2022/08/04 13:16:38;;;;;;;4.13;2.42;;;;;;;35.45;24.55;100400.88;6022896;28;20034;-65
2022/08/04 13:19:34;;;;;;;4.03;2.10;;;;;;;36.19;23.76;100399.03;6023136;28;20062;-66
2022/08/04 13:22:29;;;;;;;3.42;2.40;;;;;;;37.13;23.05;100384.31;6020914;28;20669;-65
2022/08/04 13:25:29;;;;;;;5.20;2.13;;;;;;;37.64;22.38;100388.84;6020241;28;20104;-65
2022/08/04 13:28:26;;;;;;;5.28;2.50;;;;;;;37.96;22.79;100393.72;6020814;28;20137;-68
2022/08/04 13:31:22;;;;;;;4.57;2.30;;;;;;;38.41;22.25;100391.09;6020838;28;20386;-66
2022/08/04 13:34:18;;;;;;;3.17;2.25;;;;;;;38.51;21.92;100391.47;6021112;28;20030;-67
2022/08/04 13:37:14;;;;;;;3.53;2.67;;;;;;;38.69;21.41;100375.50;6019790;28;20112;-66
2022/08/04 13:40:11;;;;;;;3.78;1.95;;;;;;;38.76;20.62;100377.75;6020822;28;20689;-66
2022/08/04 13:43:08;;;;;;;3.90;2.22;;;;;;;38.61;20.95;100380.00;6020829;28;20041;-66
2022/08/04 13:46:05;;;;;;;4.57;2.33;;;;;;;38.61;21.62;100374.44;6021648;28;20031;-66
2022/08/04 13:49:01;;;;;;;3.45;2.22;;;;;;;38.69;21.36;100373.53;6019479;28;20034;-67
2022/08/04 13:51:59;;;;;;;4.38;2.13;;;;;;;38.89;21.22;100379.41;6016463;28;20038;-67
2022/08/04 13:54:54;;;;;;;5.45;2.00;;;;;;;38.58;20.64;100366.81;6021220;28;20034;-66
2022/08/04 13:58:12;;;;;;;3.30;1.90;;;;;;;38.39;21.26;100360.97;6021687;28;20045;-66
2022/08/04 14:01:18;;;;;;;6.90;2.13;;;;;;;38.93;20.68;100358.13;6006172;28;20136;-66
2022/08/04 14:04:19;;;;;;;6.60;2.08;;;;;;;38.93;20.57;100341.50;6021644;28;20458;-66
2022/08/04 14:07:15;;;;;;;3.72;2.13;;;;;;;39.25;20.14;100343.41;6024310;28;20386;-65
2022/08/04 14:10:11;;;;;;;4.07;2.10;;;;;;;39.17;20.01;100338.75;6019438;28;20042;-68
2022/08/04 14:13:07;;;;;;;4.63;2.30;;;;;;;39.62;20.11;100328.34;6022204;28;20034;-65
2022/08/04 14:16:13;;;;;;;4.37;2.50;;;;;;;38.85;20.96;100331.31;6021745;28;20498;-65
2022/08/04 14:19:08;;;;;;;2.65;2.00;;;;;;;38.86;20.49;100321.84;6022356;28;20266;-65